createdAt,value
2023-03-10T00:02:04.835Z,11.47
2023-03-10T00:04:26.584Z,11.37
2023-03-10T00:06:48.263Z,9.60
2023-03-10T00:09:12.221Z,9.53
2023-03-10T00:11:34.500Z,9.57
2023-03-10T00:13:56.268Z,9.43
2023-03-10T00:16:22.795Z,9.30
2023-03-10T00:18:45.251Z,8.87
2023-03-10T00:21:06.968Z,8.73
2023-03-10T00:23:28.605Z,8.63
2023-03-10T00:25:59.460Z,8.10
2023-03-10T00:28:21.403Z,7.70
2023-03-10T00:30:43.113Z,7.77
2023-03-10T00:33:04.845Z,7.63
2023-03-10T00:35:26.772Z,8.43
2023-03-10T00:37:48.416Z,8.60
2023-03-10T00:40:14.730Z,8.27
2023-03-10T00:42:36.470Z,8.73
2023-03-10T00:44:58.175Z,8.83
2023-03-10T00:47:19.817Z,9.03
2023-03-10T00:49:41.519Z,9.17
2023-03-10T00:52:03.353Z,8.97
2023-03-10T00:54:24.960Z,8.80
2023-03-10T00:56:46.677Z,9.50
2023-03-10T00:59:11.979Z,8.40
2023-03-10T01:01:40.747Z,9.50
2023-03-10T01:04:11.633Z,8.63
2023-03-10T01:06:33.798Z,9.10
2023-03-10T01:08:55.479Z,8.77
2023-03-10T01:11:23.012Z,8.70
2023-03-10T01:13:45.503Z,9.50
2023-03-10T01:16:08.129Z,9.00
2023-03-10T01:18:29.845Z,9.80
2023-03-10T01:20:51.776Z,9.20
2023-03-10T01:23:21.834Z,10.17
2023-03-10T01:25:44.967Z,10.17
2023-03-10T01:28:06.847Z,9.87
2023-03-10T01:30:29.151Z,9.43
2023-03-10T01:32:51.190Z,8.70
2023-03-10T01:35:13.129Z,8.83
2023-03-10T01:37:35.203Z,9.43
2023-03-10T01:39:56.849Z,10.20
2023-03-10T01:42:18.644Z,9.90
2023-03-10T01:44:40.449Z,10.17
2023-03-10T01:47:02.165Z,10.43
2023-03-10T01:49:33.983Z,9.97
2023-03-10T01:52:04.541Z,9.53
2023-03-10T01:54:36.993Z,9.67
2023-03-10T01:56:59.697Z,10.23
2023-03-10T01:59:23.435Z,9.83
2023-03-10T02:01:45.938Z,10.20
2023-03-10T02:04:19.188Z,10.50
2023-03-10T02:06:43.078Z,10.23
2023-03-10T02:09:05.563Z,10.20
2023-03-10T02:11:27.865Z,9.57
2023-03-10T02:13:49.808Z,9.70
2023-03-10T02:16:12.925Z,11.10
2023-03-10T02:18:34.883Z,10.43
2023-03-10T02:21:42.493Z,10.43
2023-03-10T02:24:31.898Z,11.13
2023-03-10T02:27:03.416Z,11.17
2023-03-10T02:29:52.450Z,11.50
2023-03-10T02:32:21.131Z,11.33
2023-03-10T02:34:42.884Z,11.40
2023-03-10T02:37:04.887Z,11.50
2023-03-10T02:39:26.470Z,11.50
2023-03-10T02:41:49.016Z,12.43
2023-03-10T02:44:18.764Z,11.60
2023-03-10T02:46:40.669Z,11.30
2023-03-10T02:49:05.035Z,12.43
2023-03-10T02:51:38.061Z,11.33
2023-03-10T02:54:05.440Z,12.33
2023-03-10T02:56:28.212Z,11.35
2023-03-10T02:58:52.842Z,11.50
2023-03-10T03:01:14.613Z,11.70
2023-03-10T03:03:37.436Z,11.67
2023-03-10T03:05:59.694Z,12.30
2023-03-10T03:08:21.878Z,12.23
2023-03-10T03:10:44.324Z,12.10
2023-03-10T03:13:06.705Z,11.87
2023-03-10T03:15:28.603Z,12.97
2023-03-10T03:17:51.113Z,12.73
2023-03-10T03:20:14.364Z,11.53
2023-03-10T03:22:37.870Z,11.53
2023-03-10T03:24:59.640Z,11.90
2023-03-10T03:27:21.244Z,12.13
2023-03-10T03:29:43.514Z,11.37
2023-03-10T03:32:06.257Z,11.83
2023-03-10T03:34:29.424Z,11.18
2023-03-10T03:36:54.384Z,11.30
2023-03-10T03:39:25.405Z,11.30
2023-03-10T03:41:57.299Z,12.93
2023-03-10T03:44:21.438Z,12.63
2023-03-10T03:46:44.256Z,11.63
2023-03-10T03:49:06.553Z,11.80
2023-03-10T03:51:28.384Z,11.80
2023-03-10T03:53:50.460Z,10.93
2023-03-10T03:56:12.166Z,10.90
2023-03-10T03:58:36.207Z,11.88
2023-03-10T04:00:57.987Z,12.13
2023-03-10T04:03:22.030Z,10.82
2023-03-10T04:05:44.847Z,11.43
2023-03-10T04:08:07.809Z,11.17
2023-03-10T04:10:29.556Z,10.87
2023-03-10T04:12:51.634Z,11.30
2023-03-10T04:15:13.922Z,11.20
2023-03-10T04:17:36.368Z,10.83
2023-03-10T04:20:06.925Z,12.37
2023-03-10T04:22:30.548Z,11.63
2023-03-10T04:24:54.052Z,10.60
2023-03-10T04:27:15.887Z,11.10
2023-03-10T04:29:39.251Z,11.70
2023-03-10T04:32:05.704Z,11.13
2023-03-10T04:34:31.690Z,11.40
2023-03-10T04:36:53.548Z,11.00
2023-03-10T04:39:15.403Z,11.20
2023-03-10T04:41:37.317Z,10.93
2023-03-10T04:43:58.998Z,11.27
2023-03-10T04:46:21.048Z,11.47
2023-03-10T04:48:43.958Z,11.60
2023-03-10T04:51:10.817Z,11.27
2023-03-10T04:53:38.926Z,11.27
2023-03-10T04:56:03.166Z,10.80
2023-03-10T04:58:26.620Z,10.83
2023-03-10T05:01:02.470Z,11.27
2023-03-10T05:03:25.788Z,11.37
2023-03-10T05:05:47.688Z,11.80
2023-03-10T05:08:09.965Z,10.87
2023-03-10T05:10:31.658Z,11.27
2023-03-10T05:12:53.512Z,10.67
2023-03-10T05:15:15.115Z,10.87
2023-03-10T05:17:37.188Z,11.30
2023-03-10T05:19:59.756Z,11.00
2023-03-10T05:22:21.704Z,11.40
2023-03-10T05:24:43.706Z,10.83
2023-03-10T05:27:05.694Z,11.03
2023-03-10T05:29:27.621Z,10.37
2023-03-10T05:31:54.702Z,10.43
2023-03-10T05:34:23.798Z,9.50
2023-03-10T05:36:45.759Z,9.93
2023-03-10T05:39:09.420Z,9.70
2023-03-10T05:41:38.972Z,9.97
2023-03-10T05:44:00.914Z,9.87
2023-03-10T05:46:22.826Z,10.00
2023-03-10T05:48:49.060Z,9.00
2023-03-10T05:51:12.995Z,9.77
2023-03-10T05:53:36.805Z,10.32
2023-03-10T05:56:04.049Z,11.63
2023-03-10T05:58:26.736Z,11.30
2023-03-10T06:00:48.817Z,10.67
2023-03-10T06:03:10.502Z,10.63
2023-03-10T06:05:32.120Z,9.93
2023-03-10T06:07:53.757Z,10.87
2023-03-10T06:10:15.612Z,11.67
2023-03-10T06:12:37.453Z,12.20
2023-03-10T06:14:59.191Z,10.77
2023-03-10T06:17:20.841Z,11.53
2023-03-10T06:19:43.062Z,10.43
2023-03-10T06:22:04.741Z,11.03
2023-03-10T06:24:29.167Z,11.57
2023-03-10T06:29:12.371Z,11.13
2023-03-10T06:31:35.158Z,12.03
2023-03-10T06:33:57.756Z,11.53
2023-03-10T06:36:21.383Z,12.83
2023-03-10T06:38:43.090Z,12.88
2023-03-10T06:41:06.001Z,13.23
2023-03-10T06:43:27.649Z,12.73
2023-03-10T06:45:50.449Z,13.60
2023-03-10T06:48:13.212Z,13.97
2023-03-10T06:50:47.919Z,13.90
2023-03-10T06:53:11.002Z,13.63
2023-03-10T06:55:32.615Z,13.97
2023-03-10T06:57:54.347Z,14.13
2023-03-10T07:00:17.000Z,13.10
2023-03-10T07:02:38.857Z,14.63
2023-03-10T07:05:00.647Z,13.33
2023-03-10T07:07:22.296Z,13.10
2023-03-10T07:09:43.994Z,13.57
2023-03-10T07:12:06.402Z,13.60
2023-03-10T07:14:28.750Z,14.10
2023-03-10T07:16:50.456Z,13.60
2023-03-10T07:19:13.367Z,13.33
2023-03-10T07:21:34.962Z,13.23
2023-03-10T07:23:56.596Z,13.27
2023-03-10T07:26:18.852Z,16.43
2023-03-10T07:28:40.779Z,17.57
2023-03-10T07:31:05.429Z,16.70
2023-03-10T07:33:27.271Z,15.23
2023-03-10T07:35:49.178Z,12.97
2023-03-10T07:38:10.849Z,14.17
2023-03-10T07:40:32.870Z,14.00
2023-03-10T07:42:55.113Z,13.70
2023-03-10T07:45:16.714Z,11.87
2023-03-10T07:47:38.346Z,10.70
2023-03-10T07:49:59.902Z,11.13
2023-03-10T07:52:21.600Z,13.30
2023-03-10T07:54:44.392Z,10.67
2023-03-10T07:57:06.071Z,11.50
2023-03-10T07:59:27.790Z,11.07
2023-03-10T08:01:49.410Z,11.37
2023-03-10T08:04:12.539Z,11.90
2023-03-10T08:06:35.633Z,11.77
2023-03-10T08:08:58.045Z,11.23
2023-03-10T08:11:21.078Z,10.90
2023-03-10T08:13:45.421Z,11.80
2023-03-10T08:18:31.749Z,8.70
2023-03-10T08:20:53.514Z,9.32
2023-03-10T08:23:15.185Z,8.00
2023-03-10T08:25:38.216Z,10.63
2023-03-10T08:27:59.914Z,9.30
2023-03-10T08:30:21.684Z,8.90
2023-03-10T08:32:43.777Z,8.10
2023-03-10T08:35:07.010Z,11.50
2023-03-10T08:37:28.706Z,11.87
2023-03-10T08:39:53.281Z,9.53
2023-03-10T08:42:15.890Z,8.77
2023-03-10T08:44:38.474Z,12.43
2023-03-10T08:47:00.187Z,10.50
2023-03-10T08:49:22.429Z,12.40
2023-03-10T08:51:44.829Z,11.43
2023-03-10T08:54:07.920Z,14.57
2023-03-10T08:56:29.662Z,9.37
2023-03-10T08:58:56.689Z,9.03
2023-03-10T09:01:18.472Z,8.60
2023-03-10T09:03:43.092Z,8.73
2023-03-10T09:06:05.587Z,8.30
2023-03-10T09:08:27.919Z,8.07
2023-03-10T09:10:49.625Z,8.03
2023-03-10T09:13:14.272Z,7.03
2023-03-10T09:15:41.017Z,7.27
2023-03-10T09:18:02.667Z,7.37
2023-03-10T09:20:28.259Z,6.73
2023-03-10T09:22:51.242Z,7.40
2023-03-10T09:25:12.930Z,6.37
2023-03-10T09:27:34.549Z,6.17
2023-03-10T09:29:59.628Z,6.70
2023-03-10T09:32:23.287Z,6.00
2023-03-10T09:34:45.538Z,6.43
2023-03-10T09:37:08.581Z,6.73
2023-03-10T09:39:30.435Z,8.53
2023-03-10T09:42:36.547Z,6.80
2023-03-10T09:45:30.373Z,7.30
2023-03-10T09:48:26.374Z,8.03
2023-03-10T09:50:52.546Z,6.77
2023-03-10T09:54:13.656Z,6.47
2023-03-10T09:56:36.367Z,6.53
2023-03-10T09:59:11.151Z,5.77
2023-03-10T10:04:04.729Z,6.60
2023-03-10T10:06:35.623Z,6.50
2023-03-10T10:09:05.080Z,6.07
2023-03-10T10:11:27.638Z,6.60
2023-03-10T10:13:54.882Z,6.47
2023-03-10T10:16:56.386Z,6.37
2023-03-10T10:19:26.576Z,6.97
2023-03-10T10:22:14.696Z,6.90
2023-03-10T10:24:36.823Z,6.87
2023-03-10T10:26:58.576Z,7.30
2023-03-10T10:29:29.270Z,6.30
2023-03-10T10:32:13.915Z,7.10
2023-03-10T10:34:38.173Z,6.40
2023-03-10T10:37:01.067Z,6.03
2023-03-10T10:39:33.648Z,5.60
2023-03-10T10:42:21.095Z,5.43
2023-03-10T10:44:44.945Z,5.50
2023-03-10T10:47:26.618Z,5.80
2023-03-10T10:49:48.261Z,6.17
2023-03-10T10:52:23.172Z,9.37
2023-03-10T10:57:23.883Z,7.73
2023-03-10T10:59:45.700Z,7.10
2023-03-10T11:02:34.905Z,6.67
2023-03-10T11:05:32.699Z,6.03
2023-03-10T11:07:54.346Z,8.63
2023-03-10T11:10:27.700Z,8.10
2023-03-10T11:13:07.012Z,7.90
2023-03-10T11:15:36.690Z,8.73
2023-03-10T11:18:21.544Z,9.37
2023-03-10T11:21:28.093Z,10.20
2023-03-10T11:24:16.690Z,11.87
2023-03-10T11:26:59.418Z,8.57
2023-03-10T11:29:55.564Z,9.20
2023-03-10T11:32:53.712Z,8.17
2023-03-10T11:35:36.032Z,8.73
2023-03-10T11:38:28.429Z,8.33
2023-03-10T11:40:59.141Z,8.40
2023-03-10T11:44:01.494Z,8.13
2023-03-10T11:47:00.781Z,7.67
2023-03-10T11:49:27.234Z,7.87
2023-03-10T11:51:59.615Z,9.10
2023-03-10T11:54:31.069Z,6.93
2023-03-10T11:56:53.274Z,8.23
2023-03-10T11:59:21.081Z,7.43
2023-03-10T12:02:03.622Z,8.57
2023-03-10T12:04:41.754Z,8.93
2023-03-10T12:07:03.721Z,8.50
2023-03-10T12:09:37.891Z,8.17
2023-03-10T12:12:03.592Z,9.30
2023-03-10T12:14:26.084Z,9.20
2023-03-10T12:16:49.484Z,9.33
2023-03-10T12:19:11.471Z,10.17
2023-03-10T12:21:33.786Z,9.87
2023-03-10T12:24:05.170Z,7.93
2023-03-10T12:26:38.973Z,8.60
2023-03-10T12:29:20.514Z,7.93
2023-03-10T12:31:42.112Z,6.87
2023-03-10T12:34:22.617Z,6.73
2023-03-10T12:36:47.562Z,7.27
2023-03-10T12:39:40.029Z,6.67
2023-03-10T12:42:04.461Z,7.20
2023-03-10T12:47:29.567Z,6.30
2023-03-10T12:50:00.196Z,6.90
2023-03-10T12:52:47.729Z,7.90
2023-03-10T12:55:27.910Z,7.43
2023-03-10T12:57:52.434Z,6.23
2023-03-10T13:00:26.547Z,5.40
2023-03-10T13:02:57.080Z,5.05
2023-03-10T13:05:29.338Z,4.80
2023-03-10T13:07:57.007Z,4.90
2023-03-10T13:10:28.918Z,4.50
2023-03-10T13:12:59.769Z,4.60
2023-03-10T13:15:29.913Z,4.53
2023-03-10T13:17:55.093Z,4.80
2023-03-10T13:20:18.982Z,4.73
2023-03-10T13:22:41.049Z,4.32
2023-03-10T13:25:13.245Z,4.23
2023-03-10T13:27:35.952Z,3.10
2023-03-10T13:30:05.525Z,3.50
2023-03-10T13:32:29.260Z,3.60
2023-03-10T13:34:51.275Z,3.80
2023-03-10T13:37:12.936Z,3.67
2023-03-10T13:39:34.664Z,3.53
2023-03-10T13:42:00.720Z,3.83
2023-03-10T13:44:37.440Z,3.50
2023-03-10T13:47:02.326Z,3.40
2023-03-10T13:49:28.745Z,3.07
2023-03-10T13:52:14.752Z,2.93
2023-03-10T13:54:42.178Z,2.47
2023-03-10T13:57:12.242Z,2.30
2023-03-10T13:59:36.692Z,2.13
2023-03-10T14:04:49.913Z,2.00
2023-03-10T14:07:23.431Z,1.60
2023-03-10T14:09:48.430Z,1.50
2023-03-10T14:12:12.290Z,1.70
2023-03-10T14:14:38.520Z,1.52
2023-03-10T14:17:05.048Z,1.50
2023-03-10T14:19:41.871Z,1.43
2023-03-10T14:22:37.910Z,1.90
2023-03-10T14:25:01.829Z,1.50
2023-03-10T14:27:24.866Z,2.22
2023-03-10T14:29:52.430Z,1.13
2023-03-10T14:32:14.117Z,1.10
2023-03-10T14:34:35.711Z,1.37
2023-03-10T14:36:57.390Z,1.53
2023-03-10T14:39:19.446Z,1.17
2023-03-10T14:41:41.186Z,1.33
2023-03-10T14:44:03.200Z,1.40
2023-03-10T14:46:25.344Z,1.57
2023-03-10T14:48:47.243Z,1.60
2023-03-10T14:51:32.514Z,1.23
2023-03-10T14:53:55.933Z,1.30
2023-03-10T14:56:21.443Z,1.30
2023-03-10T14:58:48.988Z,1.00
2023-03-10T15:01:10.611Z,1.50
2023-03-10T15:03:32.273Z,1.87
2023-03-10T15:05:53.912Z,1.70
2023-03-10T15:08:17.054Z,1.40
2023-03-10T15:10:42.505Z,1.50
2023-03-10T15:13:04.433Z,1.70
2023-03-10T15:15:38.318Z,1.77
2023-03-10T15:17:59.946Z,1.80
2023-03-10T15:20:24.713Z,2.10
2023-03-10T15:22:48.085Z,2.00
2023-03-10T15:25:11.112Z,2.23
2023-03-10T15:27:32.815Z,2.30
2023-03-10T15:29:54.461Z,2.37
2023-03-10T15:32:16.542Z,2.30
2023-03-10T15:34:38.224Z,2.83
2023-03-10T15:37:01.008Z,2.63
2023-03-10T15:39:31.521Z,2.90
2023-03-10T15:41:53.937Z,3.67
2023-03-10T15:44:15.605Z,3.93
2023-03-10T15:46:38.515Z,3.57
2023-03-10T15:49:03.333Z,4.30
2023-03-10T15:51:24.984Z,4.23
2023-03-10T15:53:47.416Z,4.93
2023-03-10T15:56:11.072Z,4.40
2023-03-10T15:58:32.795Z,4.68
2023-03-10T16:00:54.398Z,2.33
2023-03-10T16:03:18.252Z,3.37
2023-03-10T16:05:50.381Z,2.60
2023-03-10T16:08:12.040Z,2.00
2023-03-10T16:10:38.254Z,1.70
2023-03-10T16:13:00.517Z,2.00
2023-03-10T16:15:22.242Z,1.90
2023-03-10T16:17:44.060Z,2.17
2023-03-10T16:20:11.844Z,2.57
2023-03-10T16:22:33.617Z,2.43
2023-03-10T16:24:55.701Z,2.50
2023-03-10T16:27:17.462Z,2.37
2023-03-10T16:29:41.039Z,2.50
2023-03-10T16:32:03.268Z,2.45
2023-03-10T16:34:25.010Z,2.57
2023-03-10T16:36:46.756Z,2.30
2023-03-10T16:39:10.887Z,3.00
2023-03-10T16:41:33.342Z,4.22
2023-03-10T16:43:55.439Z,2.83
2023-03-10T16:46:26.505Z,2.43
2023-03-10T16:48:48.778Z,2.83
2023-03-10T16:51:26.605Z,2.47
2023-03-10T16:53:49.653Z,2.90
2023-03-10T16:56:11.234Z,2.77
2023-03-10T16:58:34.012Z,3.00
2023-03-10T17:00:55.722Z,3.00
2023-03-10T17:03:17.379Z,2.53
2023-03-10T17:05:39.305Z,3.23
2023-03-10T17:08:02.668Z,3.40
2023-03-10T17:10:26.811Z,3.27
2023-03-10T17:12:48.815Z,3.53
2023-03-10T17:15:11.676Z,3.50
2023-03-10T17:17:33.856Z,3.57
2023-03-10T17:19:55.509Z,3.80
2023-03-10T17:22:17.173Z,3.67
2023-03-10T17:24:38.765Z,3.17
2023-03-10T17:27:06.531Z,3.40
2023-03-10T17:29:28.302Z,2.70
2023-03-10T17:31:51.460Z,2.60
2023-03-10T17:34:14.563Z,2.67
2023-03-10T17:36:36.535Z,2.97
2023-03-10T17:39:01.589Z,2.47
2023-03-10T17:41:23.624Z,1.77
2023-03-10T17:43:45.402Z,1.33
2023-03-10T17:46:13.418Z,1.17
2023-03-10T17:48:35.734Z,0.80
2023-03-10T17:50:57.695Z,0.90
2023-03-10T17:53:24.649Z,0.90
2023-03-10T17:55:46.473Z,3.67
2023-03-10T17:58:08.342Z,2.17
2023-03-10T18:00:30.475Z,1.30
2023-03-10T18:02:52.210Z,0.60
2023-03-10T18:05:13.961Z,0.87
2023-03-10T18:07:35.588Z,1.37
2023-03-10T18:09:58.281Z,1.20
2023-03-10T18:12:20.229Z,1.73
2023-03-10T18:14:41.899Z,1.30
2023-03-10T18:17:03.635Z,1.20
2023-03-10T18:19:25.374Z,1.83
2023-03-10T18:21:51.686Z,0.90
2023-03-10T18:24:13.431Z,1.13
2023-03-10T18:26:35.508Z,1.20
2023-03-10T18:28:59.437Z,1.20
2023-03-10T18:31:31.880Z,1.42
2023-03-10T18:33:54.510Z,1.20
2023-03-10T18:36:19.656Z,1.60
2023-03-10T18:38:41.343Z,1.20
2023-03-10T18:41:04.273Z,1.23
2023-03-10T18:43:29.241Z,1.50
2023-03-10T18:45:51.063Z,1.53
2023-03-10T18:48:12.753Z,1.40
2023-03-10T18:50:34.474Z,1.63
2023-03-10T18:52:56.070Z,1.10
2023-03-10T18:55:18.349Z,1.30
2023-03-10T18:57:40.340Z,1.07
2023-03-10T19:00:02.229Z,1.40
2023-03-10T19:02:24.372Z,1.50
2023-03-10T19:04:47.825Z,2.53
2023-03-10T19:07:09.610Z,3.95
2023-03-10T19:09:31.398Z,4.10
2023-03-10T19:11:54.146Z,2.17
2023-03-10T19:14:16.903Z,2.67
2023-03-10T19:16:42.545Z,2.90
2023-03-10T19:19:04.195Z,3.03
2023-03-10T19:21:25.879Z,3.30
2023-03-10T19:23:47.542Z,3.63
2023-03-10T19:26:09.948Z,4.40
2023-03-10T19:28:31.661Z,3.23
2023-03-10T19:30:53.486Z,4.40
2023-03-10T19:33:15.201Z,3.87
2023-03-10T19:35:37.555Z,4.23
2023-03-10T19:38:00.369Z,4.67
2023-03-10T19:40:23.073Z,5.20
2023-03-10T19:42:45.699Z,5.07
2023-03-10T19:45:08.215Z,4.30
2023-03-10T19:47:31.307Z,4.60
2023-03-10T19:49:52.959Z,3.40
2023-03-10T19:52:14.634Z,4.30
2023-03-10T19:54:36.767Z,3.33
2023-03-10T19:56:58.395Z,2.87
2023-03-10T19:59:20.102Z,3.00
2023-03-10T20:01:43.926Z,2.17
2023-03-10T20:04:05.672Z,1.98
2023-03-10T20:06:28.198Z,2.17
2023-03-10T20:08:50.204Z,1.80
2023-03-10T20:11:14.636Z,2.13
2023-03-10T20:15:58.811Z,2.10
2023-03-10T20:18:21.190Z,1.87
2023-03-10T20:20:42.918Z,2.57
2023-03-10T20:23:04.535Z,1.90
2023-03-10T20:25:26.980Z,2.10
2023-03-10T20:27:52.102Z,1.50
2023-03-10T20:30:20.586Z,1.83
2023-03-10T20:32:42.881Z,1.27
2023-03-10T20:35:06.223Z,1.33
2023-03-10T20:37:27.929Z,1.50
2023-03-10T20:39:49.622Z,2.33
2023-03-10T20:42:11.227Z,1.53
2023-03-10T20:44:33.154Z,1.73
2023-03-10T20:46:54.923Z,1.40
2023-03-10T20:49:16.534Z,2.43
2023-03-10T20:51:40.697Z,2.50
2023-03-10T20:54:02.432Z,1.93
2023-03-10T20:56:24.144Z,2.20
2023-03-10T20:58:45.867Z,1.60
2023-03-10T21:01:16.053Z,1.97
2023-03-10T21:03:37.647Z,1.70
2023-03-10T21:05:59.422Z,1.93
2023-03-10T21:08:21.114Z,1.90
2023-03-10T21:10:47.177Z,2.10
2023-03-10T21:13:15.112Z,2.03
2023-03-10T21:15:51.055Z,2.20
2023-03-10T21:18:12.835Z,2.37
2023-03-10T21:20:34.541Z,2.00
2023-03-10T21:22:56.650Z,1.93
2023-03-10T21:25:23.630Z,2.37
2023-03-10T21:27:49.640Z,1.87
2023-03-10T21:30:13.659Z,3.10
2023-03-10T21:32:37.114Z,2.15
2023-03-10T21:34:58.821Z,1.50
2023-03-10T21:37:20.651Z,2.10
2023-03-10T21:39:43.121Z,2.53
2023-03-10T21:42:05.000Z,2.07
2023-03-10T21:44:26.709Z,2.13
2023-03-10T21:46:50.257Z,2.10
2023-03-10T21:49:11.939Z,2.50
2023-03-10T21:51:34.922Z,2.27
2023-03-10T21:53:56.543Z,2.07
2023-03-10T21:56:19.708Z,1.90
2023-03-10T21:58:41.336Z,2.90
2023-03-10T22:01:07.596Z,3.10
2023-03-10T22:03:29.379Z,1.87
2023-03-10T22:05:51.886Z,2.43
2023-03-10T22:08:13.527Z,2.90
2023-03-10T22:10:35.126Z,2.03
2023-03-10T22:12:57.050Z,2.07
2023-03-10T22:15:24.748Z,1.93
2023-03-10T22:17:47.227Z,2.13
2023-03-10T22:20:16.957Z,1.90
2023-03-10T22:22:38.656Z,2.30
2023-03-10T22:25:00.242Z,2.17
2023-03-10T22:27:22.012Z,1.50
2023-03-10T22:29:43.703Z,2.17
2023-03-10T22:32:06.430Z,2.37
2023-03-10T22:34:28.019Z,1.50
2023-03-10T22:36:49.669Z,1.87
2023-03-10T22:39:11.291Z,1.83
2023-03-10T22:41:32.904Z,1.70
2023-03-10T22:43:56.012Z,2.10
2023-03-10T22:46:17.749Z,1.57
2023-03-10T22:48:40.098Z,2.00
2023-03-10T22:51:09.684Z,2.17
2023-03-10T22:53:31.414Z,2.40
2023-03-10T22:55:53.034Z,2.17
2023-03-10T22:58:16.241Z,1.87
2023-03-10T23:00:39.735Z,1.70
2023-03-10T23:03:02.371Z,1.80
2023-03-10T23:05:26.671Z,3.20
2023-03-10T23:07:49.652Z,1.75
2023-03-10T23:10:22.423Z,1.63
2023-03-10T23:12:45.793Z,1.53
2023-03-10T23:15:15.424Z,1.90
2023-03-10T23:17:44.313Z,1.90
2023-03-10T23:20:07.282Z,2.10
2023-03-10T23:22:28.888Z,2.27
2023-03-10T23:24:51.706Z,2.70
2023-03-10T23:27:13.376Z,3.37
2023-03-10T23:29:35.534Z,2.43
2023-03-10T23:31:58.000Z,1.97
2023-03-10T23:34:19.722Z,2.07
2023-03-10T23:36:41.340Z,2.73
2023-03-10T23:39:03.479Z,1.80
2023-03-10T23:41:25.241Z,2.10
2023-03-10T23:43:46.863Z,2.17
2023-03-10T23:46:08.943Z,3.93
2023-03-10T23:48:30.975Z,3.17
2023-03-10T23:50:52.717Z,3.40
2023-03-10T23:53:17.620Z,3.57
2023-03-10T23:55:42.713Z,2.33
2023-03-10T23:58:05.971Z,2.37
